createdAt,value
2022-07-28T00:01:21.103Z,2.20
2022-07-28T00:04:23.982Z,1.90
2022-07-28T00:07:26.829Z,2.10
2022-07-28T00:10:29.802Z,1.60
2022-07-28T00:13:32.643Z,2.80
2022-07-28T00:16:35.619Z,2.40
2022-07-28T00:19:40.006Z,2.40
2022-07-28T00:22:43.842Z,2.00
2022-07-28T00:25:46.704Z,1.90
2022-07-28T00:28:49.937Z,2.00
2022-07-28T00:31:52.944Z,2.10
2022-07-28T00:34:56.642Z,2.00
2022-07-28T00:38:01.151Z,1.80
2022-07-28T00:41:13.145Z,1.70
2022-07-28T00:44:16.699Z,1.70
2022-07-28T00:47:20.230Z,1.90
2022-07-28T00:50:23.181Z,1.70
2022-07-28T00:53:26.661Z,2.00
2022-07-28T00:56:29.598Z,1.90
2022-07-28T00:59:33.890Z,1.50
2022-07-28T01:02:37.297Z,2.10
2022-07-28T01:06:03.492Z,1.90
2022-07-28T01:09:09.315Z,1.80
2022-07-28T01:12:30.409Z,1.90
2022-07-28T01:15:42.246Z,2.00
2022-07-28T01:18:52.711Z,1.60
2022-07-28T01:21:57.130Z,1.60
2022-07-28T01:25:15.608Z,1.90
2022-07-28T01:28:33.148Z,1.60
2022-07-28T01:31:43.316Z,1.60
2022-07-28T01:34:58.906Z,1.70
2022-07-28T01:38:05.671Z,1.70
2022-07-28T01:41:14.923Z,1.90
2022-07-28T01:44:23.292Z,1.80
2022-07-28T01:47:30.068Z,1.80
2022-07-28T01:50:34.615Z,2.10
2022-07-28T01:53:39.179Z,1.80
2022-07-28T01:56:43.533Z,1.80
2022-07-28T01:59:48.396Z,1.90
2022-07-28T02:02:57.232Z,1.50
2022-07-28T02:06:03.140Z,2.10
2022-07-28T02:09:07.789Z,1.70
2022-07-28T02:12:14.977Z,2.20
2022-07-28T02:15:19.310Z,1.80
2022-07-28T02:18:23.399Z,1.70
2022-07-28T02:21:27.320Z,2.00
2022-07-28T02:24:31.868Z,2.20
2022-07-28T02:27:49.605Z,1.90
2022-07-28T02:31:00.208Z,2.20
2022-07-28T02:34:07.167Z,2.10
2022-07-28T02:37:12.743Z,2.10
2022-07-28T02:40:18.547Z,2.20
2022-07-28T02:43:27.192Z,2.20
2022-07-28T02:46:53.033Z,2.70
2022-07-28T02:49:58.660Z,3.10
2022-07-28T02:53:15.125Z,2.80
2022-07-28T02:56:20.321Z,3.30
2022-07-28T02:59:24.156Z,3.50
2022-07-28T03:02:30.821Z,3.50
2022-07-28T03:05:34.025Z,3.70
2022-07-28T03:08:37.133Z,3.30
2022-07-28T03:11:53.195Z,2.90
2022-07-28T03:14:56.150Z,2.30
2022-07-28T03:18:03.577Z,2.90
2022-07-28T03:21:06.485Z,2.70
2022-07-28T03:24:10.814Z,2.70
2022-07-28T03:27:22.238Z,4.30
2022-07-28T03:30:38.640Z,3.50
2022-07-28T03:33:41.851Z,3.40
2022-07-28T03:36:48.169Z,3.60
2022-07-28T03:39:54.856Z,3.70
2022-07-28T03:42:59.616Z,3.50
2022-07-28T03:46:02.858Z,3.00
2022-07-28T03:49:08.479Z,3.20
2022-07-28T03:52:11.547Z,3.30
2022-07-28T03:55:15.583Z,3.20
2022-07-28T03:58:26.285Z,3.00
2022-07-28T04:01:31.775Z,2.60
2022-07-28T04:04:34.761Z,2.60
2022-07-28T04:07:37.956Z,2.30
2022-07-28T04:10:41.388Z,2.50
2022-07-28T04:13:44.311Z,2.30
2022-07-28T04:16:47.305Z,2.10
2022-07-28T04:19:50.284Z,1.80
2022-07-28T04:22:55.261Z,2.40
2022-07-28T04:25:58.171Z,2.50
2022-07-28T04:29:03.243Z,2.10
2022-07-28T04:32:06.500Z,2.30
2022-07-28T04:35:14.109Z,1.70
2022-07-28T04:38:20.910Z,2.00
2022-07-28T04:41:23.863Z,2.00
2022-07-28T04:44:26.814Z,2.00
2022-07-28T04:47:29.785Z,2.00
2022-07-28T04:50:33.131Z,2.00
2022-07-28T04:53:36.601Z,1.90
2022-07-28T04:56:39.459Z,2.10
2022-07-28T04:59:42.875Z,2.30
2022-07-28T05:02:46.471Z,2.00
2022-07-28T05:05:54.138Z,2.00
2022-07-28T05:08:57.578Z,2.10
2022-07-28T05:12:00.412Z,2.10
2022-07-28T05:15:04.745Z,1.90
2022-07-28T05:18:07.679Z,2.40
2022-07-28T05:21:10.607Z,2.10
2022-07-28T05:24:14.693Z,2.10
2022-07-28T05:27:17.893Z,2.00
2022-07-28T05:30:22.060Z,2.50
2022-07-28T05:33:30.191Z,2.20
2022-07-28T05:36:36.075Z,2.40
2022-07-28T05:39:39.010Z,2.60
2022-07-28T05:42:43.418Z,2.50
2022-07-28T05:45:48.256Z,2.70
2022-07-28T05:48:52.000Z,2.30
2022-07-28T05:51:54.938Z,2.30
2022-07-28T05:54:57.868Z,2.20
2022-07-28T05:58:00.810Z,2.00
2022-07-28T06:06:00.848Z,2.40
2022-07-28T06:09:18.473Z,2.40
2022-07-28T06:12:21.572Z,2.00
2022-07-28T06:15:26.949Z,2.10
2022-07-28T06:18:29.899Z,2.60
2022-07-28T06:21:33.103Z,2.20
2022-07-28T06:24:36.939Z,2.10
2022-07-28T06:27:40.020Z,2.10
2022-07-28T06:30:43.189Z,2.30
2022-07-28T06:33:47.610Z,2.20
2022-07-28T06:36:52.406Z,1.80
2022-07-28T06:39:55.376Z,2.20
2022-07-28T06:42:58.390Z,1.60
2022-07-28T06:46:05.989Z,1.70
2022-07-28T06:49:09.018Z,1.70
2022-07-28T06:52:12.954Z,1.90
2022-07-28T06:55:16.397Z,1.80
2022-07-28T06:58:20.265Z,1.40
2022-07-28T07:01:23.408Z,2.00
2022-07-28T07:04:26.503Z,1.40
2022-07-28T07:07:29.532Z,1.70
2022-07-28T07:10:32.654Z,1.40
2022-07-28T07:13:37.080Z,1.50
2022-07-28T07:16:40.141Z,1.40
2022-07-28T07:19:43.235Z,1.50
2022-07-28T07:22:47.379Z,1.70
2022-07-28T07:25:50.367Z,1.80
2022-07-28T07:28:53.432Z,1.70
2022-07-28T07:31:58.645Z,1.30
2022-07-28T07:35:01.850Z,1.20
2022-07-28T07:38:05.044Z,1.40
2022-07-28T07:41:07.985Z,1.20
2022-07-28T07:44:11.018Z,1.20
2022-07-28T07:47:14.262Z,1.20
2022-07-28T07:50:17.282Z,1.30
2022-07-28T07:53:25.162Z,1.10
2022-07-28T07:56:28.082Z,1.00
2022-07-28T07:59:33.460Z,1.10
2022-07-28T08:02:43.070Z,1.30
2022-07-28T08:05:46.737Z,0.90
2022-07-28T08:08:49.774Z,1.00
2022-07-28T08:11:52.799Z,1.20
2022-07-28T08:14:57.471Z,1.30
2022-07-28T08:18:01.735Z,1.70
2022-07-28T08:21:04.874Z,1.00
2022-07-28T08:24:08.823Z,1.30
2022-07-28T08:27:13.970Z,1.10
2022-07-28T08:30:22.601Z,1.20
2022-07-28T08:33:26.436Z,1.20
2022-07-28T08:36:29.514Z,1.20
2022-07-28T08:39:34.466Z,1.30
2022-07-28T08:42:53.035Z,1.40
2022-07-28T08:45:59.089Z,1.10
2022-07-28T08:49:07.448Z,1.30
2022-07-28T08:52:12.711Z,1.30
2022-07-28T08:55:19.787Z,1.10
2022-07-28T08:58:22.932Z,1.30
2022-07-28T09:01:26.064Z,1.40
2022-07-28T09:04:42.369Z,1.30
2022-07-28T09:07:54.242Z,1.00
2022-07-28T09:10:58.162Z,1.00
2022-07-28T09:14:01.184Z,1.00
2022-07-28T09:17:05.372Z,1.20
2022-07-28T09:20:13.985Z,1.40
2022-07-28T09:23:42.314Z,1.30
2022-07-28T09:26:59.791Z,1.00
2022-07-28T09:30:02.932Z,1.30
2022-07-28T09:33:42.724Z,1.20
2022-07-28T09:36:40.426Z,1.30
2022-07-28T09:39:44.461Z,1.10
2022-07-28T09:42:50.324Z,1.40
2022-07-28T09:46:05.901Z,1.20
2022-07-28T09:49:09.202Z,1.10
2022-07-28T09:52:13.447Z,0.90
2022-07-28T09:55:17.394Z,1.30
2022-07-28T09:58:20.403Z,1.20
2022-07-28T10:01:29.247Z,1.40
2022-07-28T10:04:42.313Z,1.40
2022-07-28T10:07:52.815Z,1.30
2022-07-28T10:11:00.987Z,1.20
2022-07-28T10:14:06.190Z,1.10
2022-07-28T10:17:21.878Z,1.20
2022-07-28T10:20:27.063Z,1.30
2022-07-28T10:23:31.418Z,1.40
2022-07-28T10:26:45.439Z,1.10
2022-07-28T10:29:54.917Z,1.20
2022-07-28T10:33:01.220Z,1.20
2022-07-28T10:36:04.971Z,1.40
2022-07-28T10:39:19.729Z,1.40
2022-07-28T10:42:24.273Z,1.20
2022-07-28T10:45:48.055Z,1.40
2022-07-28T10:48:51.107Z,1.20
2022-07-28T10:52:08.973Z,1.30
2022-07-28T10:55:40.804Z,1.20
2022-07-28T10:59:04.994Z,1.40
2022-07-28T11:02:09.071Z,1.20
2022-07-28T11:05:39.220Z,1.10
2022-07-28T11:08:42.428Z,1.50
2022-07-28T11:11:55.927Z,1.20
2022-07-28T11:14:58.900Z,1.40
2022-07-28T11:18:22.244Z,1.40
2022-07-28T11:21:26.682Z,1.40
2022-07-28T11:25:00.827Z,1.10
2022-07-28T11:28:24.548Z,1.40
2022-07-28T11:31:48.839Z,1.50
2022-07-28T11:35:09.304Z,1.30
2022-07-28T11:38:14.101Z,1.20
2022-07-28T11:41:32.314Z,1.30
2022-07-28T11:44:37.473Z,1.50
2022-07-28T11:47:40.702Z,1.30
2022-07-28T11:51:03.636Z,1.20
2022-07-28T11:54:17.099Z,1.10
2022-07-28T11:57:24.303Z,1.50
2022-07-28T12:00:27.852Z,1.10
2022-07-28T12:03:49.523Z,1.20
2022-07-28T12:06:57.332Z,1.30
2022-07-28T12:10:01.589Z,1.10
2022-07-28T12:13:07.700Z,1.30
2022-07-28T12:16:12.258Z,1.20
2022-07-28T12:19:16.417Z,1.30
2022-07-28T12:22:19.453Z,1.40
2022-07-28T12:25:23.310Z,1.30
2022-07-28T12:28:29.634Z,1.60
2022-07-28T12:31:33.529Z,1.40
2022-07-28T12:34:38.099Z,1.90
2022-07-28T12:37:43.994Z,1.40
2022-07-28T12:40:48.174Z,1.30
2022-07-28T12:43:54.795Z,1.10
2022-07-28T12:46:58.318Z,1.20
2022-07-28T12:50:19.949Z,1.50
2022-07-28T12:53:24.541Z,1.30
2022-07-28T12:56:27.699Z,1.30
2022-07-28T12:59:35.616Z,1.30
2022-07-28T13:02:38.986Z,1.10
2022-07-28T13:06:00.672Z,1.30
2022-07-28T13:09:04.220Z,1.30
2022-07-28T13:12:25.042Z,1.10
2022-07-28T13:15:28.104Z,1.20
2022-07-28T13:18:46.797Z,1.20
2022-07-28T13:21:56.558Z,1.20
2022-07-28T13:25:05.288Z,1.20
2022-07-28T13:28:28.600Z,1.40
2022-07-28T13:31:33.686Z,1.50
2022-07-28T13:34:38.416Z,1.30
2022-07-28T13:37:41.543Z,1.50
2022-07-28T13:40:44.748Z,1.40
2022-07-28T13:43:49.156Z,1.80
2022-07-28T13:46:55.263Z,1.70
2022-07-28T13:49:58.519Z,1.90
2022-07-28T13:53:01.567Z,1.40
2022-07-28T13:56:05.910Z,1.80
2022-07-28T13:59:09.320Z,1.60
2022-07-28T14:02:15.524Z,1.30
2022-07-28T14:05:19.054Z,2.30
2022-07-28T14:08:25.180Z,1.50
2022-07-28T14:11:28.572Z,1.30
2022-07-28T14:14:31.485Z,1.30
2022-07-28T14:17:43.306Z,1.40
2022-07-28T14:20:48.265Z,1.40
2022-07-28T14:23:51.828Z,1.30
2022-07-28T14:26:54.901Z,1.70
2022-07-28T14:29:57.869Z,1.30
2022-07-28T14:33:00.858Z,1.40
2022-07-28T14:36:04.131Z,1.60
2022-07-28T14:39:12.107Z,1.50
2022-07-28T14:42:15.582Z,1.40
2022-07-28T14:45:18.556Z,1.20
2022-07-28T14:48:21.443Z,1.20
2022-07-28T14:51:24.347Z,1.30
2022-07-28T14:54:27.958Z,1.30
2022-07-28T14:57:50.118Z,1.10
2022-07-28T15:00:54.502Z,1.20
2022-07-28T15:03:57.680Z,1.40
2022-07-28T15:07:01.602Z,1.60
2022-07-28T15:10:05.694Z,1.40
2022-07-28T15:13:08.679Z,1.50
2022-07-28T15:16:12.212Z,1.30
2022-07-28T15:19:15.236Z,1.50
2022-07-28T15:22:18.085Z,1.40
2022-07-28T15:25:21.062Z,1.60
2022-07-28T15:28:23.962Z,1.60
2022-07-28T15:31:30.193Z,1.90
2022-07-28T15:34:33.371Z,1.50
2022-07-28T15:37:36.670Z,1.40
2022-07-28T15:40:39.628Z,1.40
2022-07-28T15:43:42.858Z,1.60
2022-07-28T15:46:46.648Z,1.60
2022-07-28T15:49:49.962Z,2.50
2022-07-28T15:52:52.827Z,1.70
2022-07-28T15:55:55.783Z,1.60
2022-07-28T15:59:02.196Z,1.80
2022-07-28T16:02:05.253Z,2.00
2022-07-28T16:05:08.546Z,1.50
2022-07-28T16:08:11.410Z,2.00
2022-07-28T16:11:14.351Z,1.70
2022-07-28T16:14:18.102Z,1.60
2022-07-28T16:17:22.735Z,1.30
2022-07-28T16:20:25.762Z,1.70
2022-07-28T16:23:28.877Z,1.60
2022-07-28T16:26:32.151Z,1.70
2022-07-28T16:29:35.632Z,1.60
2022-07-28T16:32:41.620Z,1.80
2022-07-28T16:35:44.570Z,2.00
2022-07-28T16:38:47.534Z,2.30
2022-07-28T16:41:50.583Z,3.30
2022-07-28T16:44:53.493Z,2.80
2022-07-28T16:47:56.570Z,2.30
2022-07-28T16:50:59.592Z,2.10
2022-07-28T16:54:02.532Z,2.10
2022-07-28T16:57:06.395Z,2.00
2022-07-28T17:00:11.171Z,1.70
2022-07-28T17:03:14.145Z,1.70
2022-07-28T17:06:17.239Z,1.40
2022-07-28T17:09:20.149Z,1.40
2022-07-28T17:12:23.641Z,1.40
2022-07-28T17:15:26.756Z,1.70
2022-07-28T17:18:29.774Z,1.50
2022-07-28T17:21:32.694Z,1.50
2022-07-28T17:24:35.573Z,2.00
2022-07-28T17:27:42.265Z,1.80
2022-07-28T17:30:47.727Z,2.00
2022-07-28T17:33:51.086Z,1.80
2022-07-28T17:36:55.533Z,1.90
2022-07-28T17:39:59.308Z,1.60
2022-07-28T17:43:02.206Z,1.50
2022-07-28T17:46:10.422Z,1.60
2022-07-28T17:49:14.425Z,1.40
2022-07-28T17:52:17.876Z,1.40
2022-07-28T17:56:00.339Z,1.50
2022-07-28T17:59:00.136Z,1.70
2022-07-28T18:02:03.171Z,2.30
2022-07-28T18:05:09.932Z,1.90
2022-07-28T18:08:17.307Z,2.00
2022-07-28T18:11:20.259Z,1.30
2022-07-28T18:14:24.085Z,1.60
2022-07-28T18:17:27.304Z,1.80
2022-07-28T18:20:30.475Z,1.40
2022-07-28T18:23:33.866Z,1.80
2022-07-28T18:26:36.914Z,1.40
2022-07-28T18:29:39.987Z,1.60
2022-07-28T18:32:43.137Z,1.50
2022-07-28T18:35:46.071Z,1.60
2022-07-28T18:38:48.981Z,1.60
2022-07-28T18:41:55.277Z,2.10
2022-07-28T18:44:58.289Z,1.70
2022-07-28T18:48:01.341Z,1.60
2022-07-28T18:51:04.427Z,1.60
2022-07-28T18:54:07.383Z,2.10
2022-07-28T18:57:10.321Z,2.30
2022-07-28T19:00:14.210Z,2.20
2022-07-28T19:03:17.191Z,1.90
2022-07-28T19:06:20.726Z,1.60
2022-07-28T19:09:23.757Z,2.00
2022-07-28T19:12:29.295Z,1.70
2022-07-28T19:15:33.591Z,1.50
2022-07-28T19:18:36.473Z,1.60
2022-07-28T19:21:43.367Z,1.70
2022-07-28T19:24:46.795Z,1.60
2022-07-28T19:27:51.021Z,1.30
2022-07-28T19:30:54.125Z,1.90
2022-07-28T19:33:57.486Z,1.60
2022-07-28T19:37:00.443Z,1.70
2022-07-28T19:40:03.683Z,1.80
2022-07-28T19:43:06.568Z,1.80
2022-07-28T19:46:10.284Z,1.90
2022-07-28T19:49:13.567Z,1.60
2022-07-28T19:52:16.846Z,1.60
2022-07-28T19:55:30.899Z,1.80
2022-07-28T19:58:35.258Z,1.70
2022-07-28T20:01:44.254Z,1.70
2022-07-28T20:04:52.203Z,2.00
2022-07-28T20:07:56.840Z,2.00
2022-07-28T20:11:00.654Z,1.80
2022-07-28T20:14:03.740Z,1.90
2022-07-28T20:17:07.029Z,1.90
2022-07-28T20:20:13.607Z,2.00
2022-07-28T20:23:16.621Z,1.90
2022-07-28T20:26:23.970Z,2.40
2022-07-28T20:29:27.806Z,2.00
2022-07-28T20:32:30.789Z,1.90
2022-07-28T20:35:34.291Z,1.80
2022-07-28T20:38:39.359Z,1.80
2022-07-28T20:41:43.120Z,2.20
2022-07-28T20:44:46.248Z,2.10
2022-07-28T20:47:49.985Z,1.70
2022-07-28T20:50:53.357Z,2.40
2022-07-28T20:53:56.251Z,2.30
2022-07-28T20:57:02.300Z,2.00
2022-07-28T21:00:08.567Z,2.40
2022-07-28T21:03:11.445Z,2.70
2022-07-28T21:06:14.403Z,2.30
2022-07-28T21:09:17.556Z,2.50
2022-07-28T21:12:20.472Z,2.70
2022-07-28T21:15:24.115Z,2.60
2022-07-28T21:18:27.265Z,2.40
2022-07-28T21:21:30.412Z,2.60
2022-07-28T21:24:34.207Z,2.40
2022-07-28T21:27:55.896Z,2.40
2022-07-28T21:30:59.040Z,2.90
2022-07-28T21:34:02.035Z,2.70
2022-07-28T21:37:06.710Z,2.50
2022-07-28T21:40:10.431Z,2.80
2022-07-28T21:43:14.984Z,2.60
2022-07-28T21:46:18.674Z,2.70
2022-07-28T21:49:21.881Z,2.50
2022-07-28T21:52:24.775Z,2.70
2022-07-28T21:55:27.677Z,2.70
2022-07-28T21:58:30.531Z,2.90
2022-07-28T22:01:33.504Z,2.80
2022-07-28T22:04:36.537Z,2.60
2022-07-28T22:07:39.505Z,2.80
2022-07-28T22:10:42.403Z,2.50
2022-07-28T22:13:45.267Z,2.50
2022-07-28T22:16:48.216Z,2.70
2022-07-28T22:19:51.136Z,2.50
2022-07-28T22:22:54.679Z,2.70
2022-07-28T22:25:57.733Z,2.70
2022-07-28T22:29:00.525Z,2.50
2022-07-28T22:32:03.903Z,2.30
2022-07-28T22:35:08.441Z,2.80
2022-07-28T22:38:11.295Z,2.70
2022-07-28T22:41:14.126Z,2.40
2022-07-28T22:44:17.538Z,2.60
2022-07-28T22:47:20.838Z,2.30
2022-07-28T22:50:23.734Z,2.60
2022-07-28T22:53:26.558Z,3.10
2022-07-28T22:56:41.452Z,2.40
2022-07-28T22:59:46.844Z,2.60
2022-07-28T23:02:53.981Z,2.60
2022-07-28T23:06:00.796Z,2.40
2022-07-28T23:09:03.791Z,2.40
2022-07-28T23:12:07.867Z,2.70
2022-07-28T23:15:10.824Z,2.90
2022-07-28T23:18:14.326Z,2.50
2022-07-28T23:21:17.190Z,2.40
2022-07-28T23:24:20.114Z,2.40
2022-07-28T23:27:23.165Z,2.20
2022-07-28T23:30:26.089Z,2.60
2022-07-28T23:33:56.405Z,3.50
2022-07-28T23:36:52.034Z,3.10
2022-07-28T23:39:55.258Z,2.80
2022-07-28T23:42:58.189Z,2.50
2022-07-28T23:46:01.130Z,3.00
2022-07-28T23:49:04.086Z,2.70
2022-07-28T23:52:07.004Z,3.00
2022-07-28T23:55:10.278Z,2.90
2022-07-28T23:58:13.225Z,2.80
